Ada, Michigan
Current Conditions -  °F | °C
As of 11:53 PM on Wednesday 26 Nov 2014 (Local Time) from KGRR Reporting Station
Overcast Overcast  
Wind Chill: 29°   Ceiling: 3700
Heat Index: 29°   Visibility: 10mi
Dew Point: 21°   Wind: 3mph
Humidity: 72%   Direction: 340°NNW
Pressure: 30.14"   Gusts: NA
Location:  42.95°N, 85.49°W
Report Text: KGRR 270453Z 34003KT 10SM OVC037 M02/M06 A3014 RMK AO2 SNE33 SLP216 P0000 T10171061 410111022
Loading
Personal Weather Stations






























Interactive Weather Map New forecast layout! Learn more

10-Day Weather Forecast

Advertisements
Track Severe Weather on mobile